sensor_id;sensor_type;location;lat;lon;timestamp;P1;durP1;ratioP1;P2;durP2;ratioP2
22046;SDS011;11187;49.412;20.956;2023-04-30T00:00:56;27.02;;;24.27;;
22046;SDS011;11187;49.412;20.956;2023-04-30T00:03:29;27.67;;;24.88;;
22046;SDS011;11187;49.412;20.956;2023-04-30T00:06:23;31.48;;;25.67;;
22046;SDS011;11187;49.412;20.956;2023-04-30T00:08:56;27.25;;;24.35;;
22046;SDS011;11187;49.412;20.956;2023-04-30T00:11:43;28.13;;;25.15;;
22046;SDS011;11187;49.412;20.956;2023-04-30T00:14:16;26.58;;;23.77;;
22046;SDS011;11187;49.412;20.956;2023-04-30T00:17:03;26.83;;;23.60;;
22046;SDS011;11187;49.412;20.956;2023-04-30T00:19:37;25.60;;;22.77;;
22046;SDS011;11187;49.412;20.956;2023-04-30T00:22:30;26.95;;;24.08;;
22046;SDS011;11187;49.412;20.956;2023-04-30T00:25:24;26.65;;;23.77;;
22046;SDS011;11187;49.412;20.956;2023-04-30T00:27:57;28.88;;;24.17;;
22046;SDS011;11187;49.412;20.956;2023-04-30T00:30:44;25.38;;;22.30;;
22046;SDS011;11187;49.412;20.956;2023-04-30T00:33:17;27.70;;;24.23;;
22046;SDS011;11187;49.412;20.956;2023-04-30T00:36:11;27.50;;;24.55;;
22046;SDS011;11187;49.412;20.956;2023-04-30T00:38:44;24.38;;;22.02;;
22046;SDS011;11187;49.412;20.956;2023-04-30T00:41:32;28.23;;;24.23;;
22046;SDS011;11187;49.412;20.956;2023-04-30T00:44:08;25.90;;;21.63;;
22046;SDS011;11187;49.412;20.956;2023-04-30T00:46:54;24.17;;;21.73;;
22046;SDS011;11187;49.412;20.956;2023-04-30T00:49:27;23.90;;;21.40;;
22046;SDS011;11187;49.412;20.956;2023-04-30T00:52:14;25.35;;;21.45;;
22046;SDS011;11187;49.412;20.956;2023-04-30T00:55:09;24.75;;;22.35;;
22046;SDS011;11187;49.412;20.956;2023-04-30T00:58:04;23.85;;;21.33;;
22046;SDS011;11187;49.412;20.956;2023-04-30T01:00:37;24.05;;;21.63;;
22046;SDS011;11187;49.412;20.956;2023-04-30T01:03:32;23.48;;;20.65;;
22046;SDS011;11187;49.412;20.956;2023-04-30T01:06:27;25.02;;;22.33;;
22046;SDS011;11187;49.412;20.956;2023-04-30T01:09:01;24.27;;;21.73;;
22046;SDS011;11187;49.412;20.956;2023-04-30T01:18:02;25.13;;;22.50;;
22046;SDS011;11187;49.412;20.956;2023-04-30T01:20:38;25.90;;;21.35;;
22046;SDS011;11187;49.412;20.956;2023-04-30T01:23:51;22.98;;;20.65;;
22046;SDS011;11187;49.412;20.956;2023-04-30T01:30:22;26.52;;;23.45;;
22046;SDS011;11187;49.412;20.956;2023-04-30T01:33:16;25.63;;;22.85;;
22046;SDS011;11187;49.412;20.956;2023-04-30T01:51:42;25.95;;;23.17;;
22046;SDS011;11187;49.412;20.956;2023-04-30T01:54:37;28.80;;;25.80;;
22046;SDS011;11187;49.412;20.956;2023-04-30T01:57:45;27.05;;;24.25;;
22046;SDS011;11187;49.412;20.956;2023-04-30T02:00:41;27.00;;;24.15;;
22046;SDS011;11187;49.412;20.956;2023-04-30T02:03:14;27.52;;;24.25;;
22046;SDS011;11187;49.412;20.956;2023-04-30T02:06:01;27.88;;;23.90;;
22046;SDS011;11187;49.412;20.956;2023-04-30T02:08:34;27.42;;;24.55;;
22046;SDS011;11187;49.412;20.956;2023-04-30T02:11:21;31.00;;;25.38;;
22046;SDS011;11187;49.412;20.956;2023-04-30T02:14:04;27.88;;;24.45;;
22046;SDS011;11187;49.412;20.956;2023-04-30T02:16:45;27.80;;;24.90;;
22046;SDS011;11187;49.412;20.956;2023-04-30T02:19:25;32.70;;;26.63;;
22046;SDS011;11187;49.412;20.956;2023-04-30T02:22:05;30.52;;;26.10;;
22046;SDS011;11187;49.412;20.956;2023-04-30T02:24:45;29.77;;;25.58;;
22046;SDS011;11187;49.412;20.956;2023-04-30T02:27:28;29.27;;;26.17;;
22046;SDS011;11187;49.412;20.956;2023-04-30T02:30:09;30.52;;;25.88;;
22046;SDS011;11187;49.412;20.956;2023-04-30T02:32:58;31.13;;;26.65;;
22046;SDS011;11187;49.412;20.956;2023-04-30T02:35:31;33.13;;;28.13;;
22046;SDS011;11187;49.412;20.956;2023-04-30T02:38:19;31.08;;;27.70;;
22046;SDS011;11187;49.412;20.956;2023-04-30T02:40:52;35.58;;;29.95;;
22046;SDS011;11187;49.412;20.956;2023-04-30T02:43:39;38.47;;;29.83;;
22046;SDS011;11187;49.412;20.956;2023-04-30T02:46:12;34.75;;;30.05;;
22046;SDS011;11187;49.412;20.956;2023-04-30T02:48:59;36.75;;;30.35;;
22046;SDS011;11187;49.412;20.956;2023-04-30T02:51:32;38.30;;;30.50;;
22046;SDS011;11187;49.412;20.956;2023-04-30T02:54:26;35.22;;;30.60;;
22046;SDS011;11187;49.412;20.956;2023-04-30T02:57:20;35.75;;;29.50;;
22046;SDS011;11187;49.412;20.956;2023-04-30T02:59:53;37.33;;;29.08;;
22046;SDS011;11187;49.412;20.956;2023-04-30T03:02:40;35.92;;;30.45;;
22046;SDS011;11187;49.412;20.956;2023-04-30T03:05:14;38.40;;;29.23;;
22046;SDS011;11187;49.412;20.956;2023-04-30T03:08:00;34.13;;;28.42;;
22046;SDS011;11187;49.412;20.956;2023-04-30T03:10:34;32.13;;;28.73;;
22046;SDS011;11187;49.412;20.956;2023-04-30T03:13:20;31.85;;;28.33;;
22046;SDS011;11187;49.412;20.956;2023-04-30T03:16:00;30.27;;;26.73;;
22046;SDS011;11187;49.412;20.956;2023-04-30T03:18:55;29.02;;;25.52;;
22046;SDS011;11187;49.412;20.956;2023-04-30T03:21:50;28.42;;;25.30;;
22046;SDS011;11187;49.412;20.956;2023-04-30T03:24:23;30.27;;;27.17;;
22046;SDS011;11187;49.412;20.956;2023-04-30T03:27:17;28.15;;;25.02;;
22046;SDS011;11187;49.412;20.956;2023-04-30T03:29:50;27.73;;;24.85;;
22046;SDS011;11187;49.412;20.956;2023-04-30T03:32:37;29.17;;;25.92;;
22046;SDS011;11187;49.412;20.956;2023-04-30T03:35:11;30.38;;;26.83;;
22046;SDS011;11187;49.412;20.956;2023-04-30T03:38:04;29.50;;;26.60;;
22046;SDS011;11187;49.412;20.956;2023-04-30T03:40:37;29.27;;;25.08;;
22046;SDS011;11187;49.412;20.956;2023-04-30T03:43:24;30.75;;;27.42;;
22046;SDS011;11187;49.412;20.956;2023-04-30T03:45:57;27.42;;;24.50;;
22046;SDS011;11187;49.412;20.956;2023-04-30T03:48:51;29.85;;;26.80;;
22046;SDS011;11187;49.412;20.956;2023-04-30T03:51:24;31.50;;;28.15;;
22046;SDS011;11187;49.412;20.956;2023-04-30T03:54:13;29.77;;;26.70;;
22046;SDS011;11187;49.412;20.956;2023-04-30T03:56:46;32.63;;;29.42;;
22046;SDS011;11187;49.412;20.956;2023-04-30T03:59:33;29.85;;;26.60;;
22046;SDS011;11187;49.412;20.956;2023-04-30T04:02:07;31.25;;;28.00;;
22046;SDS011;11187;49.412;20.956;2023-04-30T04:04:53;31.90;;;28.77;;
22046;SDS011;11187;49.412;20.956;2023-04-30T04:07:27;30.88;;;27.67;;
22046;SDS011;11187;49.412;20.956;2023-04-30T04:10:20;31.33;;;28.10;;
22046;SDS011;11187;49.412;20.956;2023-04-30T04:13:14;31.02;;;27.10;;
22046;SDS011;11187;49.412;20.956;2023-04-30T04:16:08;32.65;;;27.25;;
22046;SDS011;11187;49.412;20.956;2023-04-30T04:18:42;33.83;;;28.77;;
22046;SDS011;11187;49.412;20.956;2023-04-30T04:21:35;32.20;;;28.63;;
22046;SDS011;11187;49.412;20.956;2023-04-30T04:24:29;32.40;;;28.98;;
22046;SDS011;11187;49.412;20.956;2023-04-30T04:27:23;34.15;;;30.55;;
22046;SDS011;11187;49.412;20.956;2023-04-30T04:30:17;34.00;;;30.23;;
22046;SDS011;11187;49.412;20.956;2023-04-30T04:33:11;31.27;;;28.05;;
22046;SDS011;11187;49.412;20.956;2023-04-30T04:35:44;33.08;;;29.50;;
22046;SDS011;11187;49.412;20.956;2023-04-30T04:38:31;33.58;;;30.00;;
22046;SDS011;11187;49.412;20.956;2023-04-30T04:41:04;32.13;;;28.00;;
22046;SDS011;11187;49.412;20.956;2023-04-30T04:43:58;34.03;;;30.55;;
22046;SDS011;11187;49.412;20.956;2023-04-30T04:46:52;30.08;;;27.02;;
22046;SDS011;11187;49.412;20.956;2023-04-30T04:49:46;33.97;;;29.92;;
22046;SDS011;11187;49.412;20.956;2023-04-30T04:52:20;33.28;;;29.80;;
22046;SDS011;11187;49.412;20.956;2023-04-30T04:55:07;32.75;;;29.10;;
22046;SDS011;11187;49.412;20.956;2023-04-30T04:57:40;34.55;;;30.83;;
22046;SDS011;11187;49.412;20.956;2023-04-30T05:00:27;35.55;;;31.80;;
22046;SDS011;11187;49.412;20.956;2023-04-30T05:03:02;35.13;;;31.55;;
22046;SDS011;11187;49.412;20.956;2023-04-30T05:05:55;35.75;;;31.15;;
22046;SDS011;11187;49.412;20.956;2023-04-30T05:08:49;35.90;;;32.03;;
22046;SDS011;11187;49.412;20.956;2023-04-30T05:11:22;35.05;;;31.27;;
22046;SDS011;11187;49.412;20.956;2023-04-30T05:14:09;39.67;;;34.33;;
22046;SDS011;11187;49.412;20.956;2023-04-30T05:16:42;44.08;;;39.28;;
22046;SDS011;11187;49.412;20.956;2023-04-30T05:19:29;39.45;;;35.00;;
22046;SDS011;11187;49.412;20.956;2023-04-30T05:22:02;42.65;;;35.17;;
22046;SDS011;11187;49.412;20.956;2023-04-30T05:24:56;37.15;;;33.20;;
22046;SDS011;11187;49.412;20.956;2023-04-30T05:27:50;37.70;;;33.65;;
22046;SDS011;11187;49.412;20.956;2023-04-30T05:30:24;40.38;;;36.00;;
22046;SDS011;11187;49.412;20.956;2023-04-30T05:33:10;39.17;;;34.53;;
22046;SDS011;11187;49.412;20.956;2023-04-30T05:35:44;43.20;;;37.13;;
22046;SDS011;11187;49.412;20.956;2023-04-30T05:38:37;43.85;;;35.75;;
22046;SDS011;11187;49.412;20.956;2023-04-30T05:41:11;43.70;;;37.03;;
22046;SDS011;11187;49.412;20.956;2023-04-30T05:43:58;41.75;;;34.42;;
22046;SDS011;11187;49.412;20.956;2023-04-30T05:46:32;40.97;;;34.90;;
22046;SDS011;11187;49.412;20.956;2023-04-30T05:49:19;38.92;;;32.03;;
22046;SDS011;11187;49.412;20.956;2023-04-30T05:51:53;46.67;;;35.80;;
22046;SDS011;11187;49.412;20.956;2023-04-30T05:54:47;43.25;;;35.78;;
22046;SDS011;11187;49.412;20.956;2023-04-30T05:57:41;39.00;;;33.72;;
22046;SDS011;11187;49.412;20.956;2023-04-30T06:00:15;38.90;;;34.75;;
22046;SDS011;11187;49.412;20.956;2023-04-30T06:03:02;39.87;;;30.57;;
22046;SDS011;11187;49.412;20.956;2023-04-30T06:05:36;43.45;;;33.35;;
22046;SDS011;11187;49.412;20.956;2023-04-30T06:08:23;36.33;;;32.30;;
22046;SDS011;11187;49.412;20.956;2023-04-30T06:10:57;35.97;;;32.17;;
22046;SDS011;11187;49.412;20.956;2023-04-30T06:13:46;35.50;;;31.65;;
22046;SDS011;11187;49.412;20.956;2023-04-30T06:16:20;35.15;;;31.55;;
22046;SDS011;11187;49.412;20.956;2023-04-30T06:19:06;34.95;;;30.92;;
22046;SDS011;11187;49.412;20.956;2023-04-30T06:21:40;32.22;;;28.85;;
22046;SDS011;11187;49.412;20.956;2023-04-30T06:24:26;31.77;;;28.55;;
22046;SDS011;11187;49.412;20.956;2023-04-30T06:27:00;32.55;;;29.55;;
22046;SDS011;11187;49.412;20.956;2023-04-30T06:29:53;24.52;;;22.60;;
22046;SDS011;11187;49.412;20.956;2023-04-30T06:32:27;19.10;;;17.85;;
22046;SDS011;11187;49.412;20.956;2023-04-30T06:35:13;21.75;;;20.23;;
22046;SDS011;11187;49.412;20.956;2023-04-30T06:37:47;16.70;;;15.57;;
22046;SDS011;11187;49.412;20.956;2023-04-30T06:40:33;17.60;;;16.30;;
22046;SDS011;11187;49.412;20.956;2023-04-30T06:43:08;20.55;;;19.05;;
22046;SDS011;11187;49.412;20.956;2023-04-30T06:46:01;18.67;;;17.25;;
22046;SDS011;11187;49.412;20.956;2023-04-30T06:48:36;19.80;;;18.33;;
22046;SDS011;11187;49.412;20.956;2023-04-30T06:51:22;15.68;;;14.48;;
22046;SDS011;11187;49.412;20.956;2023-04-30T06:53:56;18.40;;;17.13;;
22046;SDS011;11187;49.412;20.956;2023-04-30T06:56:42;17.30;;;16.00;;
22046;SDS011;11187;49.412;20.956;2023-04-30T06:59:17;17.75;;;16.58;;
22046;SDS011;11187;49.412;20.956;2023-04-30T07:02:03;18.75;;;17.55;;
22046;SDS011;11187;49.412;20.956;2023-04-30T07:04:37;18.50;;;17.38;;
22046;SDS011;11187;49.412;20.956;2023-04-30T07:07:30;20.23;;;18.92;;
22046;SDS011;11187;49.412;20.956;2023-04-30T07:10:04;20.08;;;18.67;;
22046;SDS011;11187;49.412;20.956;2023-04-30T07:12:52;20.70;;;19.40;;
22046;SDS011;11187;49.412;20.956;2023-04-30T07:15:26;19.40;;;18.17;;
22046;SDS011;11187;49.412;20.956;2023-04-30T07:18:12;21.33;;;19.83;;
22046;SDS011;11187;49.412;20.956;2023-04-30T07:20:46;20.38;;;19.08;;
22046;SDS011;11187;49.412;20.956;2023-04-30T07:23:39;18.73;;;17.38;;
22046;SDS011;11187;49.412;20.956;2023-04-30T07:26:33;20.02;;;18.70;;
22046;SDS011;11187;49.412;20.956;2023-04-30T07:29:08;20.80;;;19.30;;
22046;SDS011;11187;49.412;20.956;2023-04-30T07:32:01;21.83;;;20.42;;
22046;SDS011;11187;49.412;20.956;2023-04-30T07:34:35;19.23;;;17.70;;
22046;SDS011;11187;49.412;20.956;2023-04-30T07:37:28;20.40;;;19.05;;
22046;SDS011;11187;49.412;20.956;2023-04-30T07:40:03;17.13;;;16.02;;
22046;SDS011;11187;49.412;20.956;2023-04-30T07:43:13;20.63;;;19.25;;
22046;SDS011;11187;49.412;20.956;2023-04-30T07:45:47;21.25;;;19.85;;
22046;SDS011;11187;49.412;20.956;2023-04-30T07:48:40;21.73;;;20.30;;
22046;SDS011;11187;49.412;20.956;2023-04-30T07:51:34;22.60;;;20.80;;
22046;SDS011;11187;49.412;20.956;2023-04-30T07:54:08;23.77;;;21.88;;
22046;SDS011;11187;49.412;20.956;2023-04-30T07:56:54;22.73;;;20.90;;
22046;SDS011;11187;49.412;20.956;2023-04-30T07:59:28;21.98;;;20.33;;
22046;SDS011;11187;49.412;20.956;2023-04-30T08:02:21;21.95;;;20.55;;
22046;SDS011;11187;49.412;20.956;2023-04-30T08:04:55;23.50;;;21.98;;
22046;SDS011;11187;49.412;20.956;2023-04-30T08:07:42;23.85;;;22.13;;
22046;SDS011;11187;49.412;20.956;2023-04-30T08:10:16;26.27;;;24.45;;
22046;SDS011;11187;49.412;20.956;2023-04-30T08:13:09;25.08;;;23.23;;
22046;SDS011;11187;49.412;20.956;2023-04-30T08:15:43;24.65;;;22.52;;
22046;SDS011;11187;49.412;20.956;2023-04-30T08:18:36;25.10;;;23.40;;
22046;SDS011;11187;49.412;20.956;2023-04-30T08:21:31;26.98;;;25.00;;
22046;SDS011;11187;49.412;20.956;2023-04-30T08:24:25;27.50;;;25.50;;
22046;SDS011;11187;49.412;20.956;2023-04-30T08:26:59;25.67;;;23.75;;
22046;SDS011;11187;49.412;20.956;2023-04-30T08:29:52;27.45;;;25.45;;
22046;SDS011;11187;49.412;20.956;2023-04-30T08:32:47;25.40;;;23.65;;
22046;SDS011;11187;49.412;20.956;2023-04-30T08:35:23;22.75;;;21.15;;
22046;SDS011;11187;49.412;20.956;2023-04-30T08:38:16;25.65;;;23.85;;
22046;SDS011;11187;49.412;20.956;2023-04-30T08:41:12;24.40;;;22.80;;
22046;SDS011;11187;49.412;20.956;2023-04-30T08:44:06;18.50;;;17.30;;
22046;SDS011;11187;49.412;20.956;2023-04-30T08:46:43;18.77;;;17.55;;
22046;SDS011;11187;49.412;20.956;2023-04-30T08:49:29;18.13;;;16.95;;
22046;SDS011;11187;49.412;20.956;2023-04-30T08:52:05;19.08;;;17.77;;
22046;SDS011;11187;49.412;20.956;2023-04-30T08:54:52;22.02;;;20.10;;
22046;SDS011;11187;49.412;20.956;2023-04-30T08:57:30;23.85;;;21.73;;
22046;SDS011;11187;49.412;20.956;2023-04-30T09:00:17;25.33;;;22.95;;
22046;SDS011;11187;49.412;20.956;2023-04-30T09:02:51;23.30;;;21.10;;
22046;SDS011;11187;49.412;20.956;2023-04-30T09:05:37;22.83;;;20.77;;
22046;SDS011;11187;49.412;20.956;2023-04-30T09:08:15;26.38;;;22.65;;
22046;SDS011;11187;49.412;20.956;2023-04-30T09:11:06;28.45;;;25.60;;
22046;SDS011;11187;49.412;20.956;2023-04-30T09:13:59;25.80;;;23.60;;
22046;SDS011;11187;49.412;20.956;2023-04-30T09:16:48;35.40;;;29.48;;
22046;SDS011;11187;49.412;20.956;2023-04-30T09:19:26;21.95;;;19.90;;
22046;SDS011;11187;49.412;20.956;2023-04-30T09:22:21;20.38;;;18.67;;
22046;SDS011;11187;49.412;20.956;2023-04-30T09:24:56;20.15;;;18.55;;
22046;SDS011;11187;49.412;20.956;2023-04-30T09:27:42;20.92;;;18.98;;
22046;SDS011;11187;49.412;20.956;2023-04-30T09:30:38;20.50;;;18.67;;
22046;SDS011;11187;49.412;20.956;2023-04-30T09:33:24;21.05;;;19.23;;
22046;SDS011;11187;49.412;20.956;2023-04-30T09:36:08;22.35;;;20.55;;
22046;SDS011;11187;49.412;20.956;2023-04-30T09:38:54;21.33;;;19.45;;
22046;SDS011;11187;49.412;20.956;2023-04-30T09:41:28;19.92;;;18.40;;
22046;SDS011;11187;49.412;20.956;2023-04-30T09:44:30;20.10;;;18.50;;
22046;SDS011;11187;49.412;20.956;2023-04-30T09:47:10;19.98;;;18.27;;
22046;SDS011;11187;49.412;20.956;2023-04-30T09:50:05;20.30;;;18.67;;
22046;SDS011;11187;49.412;20.956;2023-04-30T09:53:06;19.55;;;17.90;;
22046;SDS011;11187;49.412;20.956;2023-04-30T09:56:00;21.23;;;19.35;;
22046;SDS011;11187;49.412;20.956;2023-04-30T09:58:36;19.80;;;18.15;;
22046;SDS011;11187;49.412;20.956;2023-04-30T10:01:26;18.55;;;16.60;;
22046;SDS011;11187;49.412;20.956;2023-04-30T10:04:00;20.83;;;19.08;;
22046;SDS011;11187;49.412;20.956;2023-04-30T10:06:46;21.13;;;19.35;;
22046;SDS011;11187;49.412;20.956;2023-04-30T10:09:20;19.05;;;17.40;;
22046;SDS011;11187;49.412;20.956;2023-04-30T10:12:12;23.23;;;21.10;;
22046;SDS011;11187;49.412;20.956;2023-04-30T10:14:50;24.08;;;22.08;;
22046;SDS011;11187;49.412;20.956;2023-04-30T10:17:40;20.52;;;18.73;;
22046;SDS011;11187;49.412;20.956;2023-04-30T10:20:19;21.75;;;19.75;;
22046;SDS011;11187;49.412;20.956;2023-04-30T10:23:08;21.88;;;19.85;;
22046;SDS011;11187;49.412;20.956;2023-04-30T10:25:43;21.75;;;19.73;;
22046;SDS011;11187;49.412;20.956;2023-04-30T10:28:31;23.50;;;21.08;;
22046;SDS011;11187;49.412;20.956;2023-04-30T10:31:05;23.02;;;20.73;;
22046;SDS011;11187;49.412;20.956;2023-04-30T10:33:54;22.83;;;20.48;;
22046;SDS011;11187;49.412;20.956;2023-04-30T10:36:47;21.13;;;19.05;;
22046;SDS011;11187;49.412;20.956;2023-04-30T10:39:35;23.17;;;19.75;;
22046;SDS011;11187;49.412;20.956;2023-04-30T10:42:10;21.08;;;18.67;;
22046;SDS011;11187;49.412;20.956;2023-04-30T10:45:03;21.42;;;19.25;;
22046;SDS011;11187;49.412;20.956;2023-04-30T10:47:57;23.10;;;20.80;;
22046;SDS011;11187;49.412;20.956;2023-04-30T10:50:31;23.88;;;21.45;;
22046;SDS011;11187;49.412;20.956;2023-04-30T10:53:18;24.63;;;22.38;;
22046;SDS011;11187;49.412;20.956;2023-04-30T10:56:16;24.13;;;21.38;;
22046;SDS011;11187;49.412;20.956;2023-04-30T10:59:21;22.52;;;20.20;;
22046;SDS011;11187;49.412;20.956;2023-04-30T11:02:15;25.05;;;22.45;;
22046;SDS011;11187;49.412;20.956;2023-04-30T11:08:05;24.00;;;21.80;;
22046;SDS011;11187;49.412;20.956;2023-04-30T11:11:03;26.30;;;23.52;;
22046;SDS011;11187;49.412;20.956;2023-04-30T11:13:43;23.98;;;21.48;;
22046;SDS011;11187;49.412;20.956;2023-04-30T11:16:32;26.25;;;22.17;;
22046;SDS011;11187;49.412;20.956;2023-04-30T11:19:12;23.67;;;21.20;;
22046;SDS011;11187;49.412;20.956;2023-04-30T11:27:55;24.58;;;22.08;;
22046;SDS011;11187;49.412;20.956;2023-04-30T11:30:29;25.23;;;22.75;;
22046;SDS011;11187;49.412;20.956;2023-04-30T11:33:19;23.63;;;21.33;;
22046;SDS011;11187;49.412;20.956;2023-04-30T11:35:54;24.30;;;20.80;;
22046;SDS011;11187;49.412;20.956;2023-04-30T11:38:41;24.10;;;21.80;;
22046;SDS011;11187;49.412;20.956;2023-04-30T11:41:15;25.05;;;22.50;;
22046;SDS011;11187;49.412;20.956;2023-04-30T11:44:01;27.02;;;24.33;;
22046;SDS011;11187;49.412;20.956;2023-04-30T11:46:35;25.38;;;22.88;;
22046;SDS011;11187;49.412;20.956;2023-04-30T11:49:22;25.83;;;23.40;;
22046;SDS011;11187;49.412;20.956;2023-04-30T11:51:56;26.00;;;23.20;;
22046;SDS011;11187;49.412;20.956;2023-04-30T11:54:42;27.77;;;23.83;;
22046;SDS011;11187;49.412;20.956;2023-04-30T11:57:16;26.98;;;24.17;;
22046;SDS011;11187;49.412;20.956;2023-04-30T12:00:09;28.27;;;25.00;;
22046;SDS011;11187;49.412;20.956;2023-04-30T12:02:45;28.52;;;25.65;;
22046;SDS011;11187;49.412;20.956;2023-04-30T12:05:33;27.75;;;23.80;;
22046;SDS011;11187;49.412;20.956;2023-04-30T12:08:07;31.40;;;23.25;;
22046;SDS011;11187;49.412;20.956;2023-04-30T12:11:00;25.70;;;23.10;;
22046;SDS011;11187;49.412;20.956;2023-04-30T12:13:34;25.20;;;22.30;;
22046;SDS011;11187;49.412;20.956;2023-04-30T12:16:21;28.75;;;23.15;;
22046;SDS011;11187;49.412;20.956;2023-04-30T12:18:56;25.17;;;22.45;;
22046;SDS011;11187;49.412;20.956;2023-04-30T12:21:43;24.02;;;21.55;;
22046;SDS011;11187;49.412;20.956;2023-04-30T12:24:21;24.50;;;22.17;;
22046;SDS011;11187;49.412;20.956;2023-04-30T12:27:13;25.15;;;22.50;;
22046;SDS011;11187;49.412;20.956;2023-04-30T12:29:47;23.63;;;21.00;;
22046;SDS011;11187;49.412;20.956;2023-04-30T12:32:36;27.83;;;23.30;;
22046;SDS011;11187;49.412;20.956;2023-04-30T12:35:21;24.20;;;21.75;;
22046;SDS011;11187;49.412;20.956;2023-04-30T12:38:19;24.00;;;21.38;;
22046;SDS011;11187;49.412;20.956;2023-04-30T12:41:13;24.67;;;22.30;;
22046;SDS011;11187;49.412;20.956;2023-04-30T12:47:08;24.45;;;21.42;;
22046;SDS011;11187;49.412;20.956;2023-04-30T12:49:43;26.50;;;23.80;;
22046;SDS011;11187;49.412;20.956;2023-04-30T12:52:31;27.83;;;22.00;;
22046;SDS011;11187;49.412;20.956;2023-04-30T12:55:17;26.83;;;24.40;;
22046;SDS011;11187;49.412;20.956;2023-04-30T12:58:06;26.38;;;21.60;;
22046;SDS011;11187;49.412;20.956;2023-04-30T13:00:44;21.92;;;19.52;;
22046;SDS011;11187;49.412;20.956;2023-04-30T13:03:35;24.98;;;22.35;;
22046;SDS011;11187;49.412;20.956;2023-04-30T13:06:09;23.17;;;20.88;;
22046;SDS011;11187;49.412;20.956;2023-04-30T13:08:55;24.23;;;21.80;;
22046;SDS011;11187;49.412;20.956;2023-04-30T13:11:29;22.25;;;20.17;;
22046;SDS011;11187;49.412;20.956;2023-04-30T13:14:15;20.63;;;18.60;;
22046;SDS011;11187;49.412;20.956;2023-04-30T13:16:49;24.45;;;21.25;;
22046;SDS011;11187;49.412;20.956;2023-04-30T13:19:42;22.23;;;20.20;;
22046;SDS011;11187;49.412;20.956;2023-04-30T13:22:36;22.52;;;20.52;;
22046;SDS011;11187;49.412;20.956;2023-04-30T13:25:11;23.10;;;20.88;;
22046;SDS011;11187;49.412;20.956;2023-04-30T13:27:58;20.83;;;18.92;;
22046;SDS011;11187;49.412;20.956;2023-04-30T13:30:32;21.88;;;19.88;;
22046;SDS011;11187;49.412;20.956;2023-04-30T13:33:26;21.45;;;19.35;;
22046;SDS011;11187;49.412;20.956;2023-04-30T13:36:20;20.17;;;18.17;;
22046;SDS011;11187;49.412;20.956;2023-04-30T13:39:15;20.33;;;18.33;;
22046;SDS011;11187;49.412;20.956;2023-04-30T13:41:49;21.25;;;17.80;;
22046;SDS011;11187;49.412;20.956;2023-04-30T13:44:37;18.10;;;16.50;;
22046;SDS011;11187;49.412;20.956;2023-04-30T13:47:11;18.88;;;17.00;;
22046;SDS011;11187;49.412;20.956;2023-04-30T13:50:05;17.92;;;16.20;;
22046;SDS011;11187;49.412;20.956;2023-04-30T13:52:40;17.88;;;16.27;;
22046;SDS011;11187;49.412;20.956;2023-04-30T13:55:26;18.35;;;15.70;;
22046;SDS011;11187;49.412;20.956;2023-04-30T13:58:06;17.25;;;15.65;;
22046;SDS011;11187;49.412;20.956;2023-04-30T14:00:55;16.25;;;14.95;;
22046;SDS011;11187;49.412;20.956;2023-04-30T14:03:29;17.20;;;15.70;;
22046;SDS011;11187;49.412;20.956;2023-04-30T14:06:15;17.23;;;15.70;;
22046;SDS011;11187;49.412;20.956;2023-04-30T14:08:49;17.00;;;15.57;;
22046;SDS011;11187;49.412;20.956;2023-04-30T14:11:42;21.38;;;14.02;;
22046;SDS011;11187;49.412;20.956;2023-04-30T14:14:36;15.95;;;14.25;;
22046;SDS011;11187;49.412;20.956;2023-04-30T14:17:11;14.85;;;13.55;;
22046;SDS011;11187;49.412;20.956;2023-04-30T14:20:05;15.82;;;14.23;;
22046;SDS011;11187;49.412;20.956;2023-04-30T14:22:40;16.10;;;14.55;;
22046;SDS011;11187;49.412;20.956;2023-04-30T14:25:26;15.75;;;14.18;;
22046;SDS011;11187;49.412;20.956;2023-04-30T14:28:00;15.45;;;13.95;;
22046;SDS011;11187;49.412;20.956;2023-04-30T14:30:46;15.10;;;14.00;;
22046;SDS011;11187;49.412;20.956;2023-04-30T14:33:20;15.82;;;14.25;;
22046;SDS011;11187;49.412;20.956;2023-04-30T14:36:13;14.65;;;13.38;;
22046;SDS011;11187;49.412;20.956;2023-04-30T14:38:47;14.13;;;12.82;;
22046;SDS011;11187;49.412;20.956;2023-04-30T14:41:34;14.55;;;13.35;;
22046;SDS011;11187;49.412;20.956;2023-04-30T14:44:08;13.93;;;12.75;;
22046;SDS011;11187;49.412;20.956;2023-04-30T14:46:54;14.90;;;13.70;;
22046;SDS011;11187;49.412;20.956;2023-04-30T14:49:28;15.73;;;14.15;;
22046;SDS011;11187;49.412;20.956;2023-04-30T14:52:21;14.95;;;13.52;;
22046;SDS011;11187;49.412;20.956;2023-04-30T14:54:55;15.45;;;14.07;;
22046;SDS011;11187;49.412;20.956;2023-04-30T14:57:49;14.70;;;13.40;;
22046;SDS011;11187;49.412;20.956;2023-04-30T15:00:23;14.73;;;13.52;;
22046;SDS011;11187;49.412;20.956;2023-04-30T15:03:16;14.63;;;13.38;;
22046;SDS011;11187;49.412;20.956;2023-04-30T15:05:50;15.70;;;14.25;;
22046;SDS011;11187;49.412;20.956;2023-04-30T15:08:36;13.73;;;12.50;;
22046;SDS011;11187;49.412;20.956;2023-04-30T15:11:11;14.45;;;13.15;;
22046;SDS011;11187;49.412;20.956;2023-04-30T15:14:04;14.63;;;13.23;;
22046;SDS011;11187;49.412;20.956;2023-04-30T15:16:59;15.02;;;13.65;;
22046;SDS011;11187;49.412;20.956;2023-04-30T15:19:32;14.93;;;13.55;;
22046;SDS011;11187;49.412;20.956;2023-04-30T15:22:19;14.68;;;13.38;;
22046;SDS011;11187;49.412;20.956;2023-04-30T15:24:53;15.93;;;14.43;;
22046;SDS011;11187;49.412;20.956;2023-04-30T15:27:46;16.33;;;15.00;;
22046;SDS011;11187;49.412;20.956;2023-04-30T15:30:40;16.30;;;15.00;;
22046;SDS011;11187;49.412;20.956;2023-04-30T15:33:34;15.70;;;14.20;;
22046;SDS011;11187;49.412;20.956;2023-04-30T15:36:13;16.17;;;14.77;;
22046;SDS011;11187;49.412;20.956;2023-04-30T15:39:01;15.15;;;13.73;;
22046;SDS011;11187;49.412;20.956;2023-04-30T15:41:36;16.77;;;15.25;;
22046;SDS011;11187;49.412;20.956;2023-04-30T15:44:23;17.25;;;15.65;;
22046;SDS011;11187;49.412;20.956;2023-04-30T15:46:57;17.10;;;15.70;;
22046;SDS011;11187;49.412;20.956;2023-04-30T15:49:43;16.42;;;15.05;;
22046;SDS011;11187;49.412;20.956;2023-04-30T15:52:17;16.58;;;15.13;;
22046;SDS011;11187;49.412;20.956;2023-04-30T15:55:04;14.43;;;13.02;;
22046;SDS011;11187;49.412;20.956;2023-04-30T15:57:38;14.52;;;13.23;;
22046;SDS011;11187;49.412;20.956;2023-04-30T16:00:31;16.00;;;14.70;;
22046;SDS011;11187;49.412;20.956;2023-04-30T16:03:08;16.88;;;15.35;;
22046;SDS011;11187;49.412;20.956;2023-04-30T16:06:01;15.80;;;14.50;;
22046;SDS011;11187;49.412;20.956;2023-04-30T16:08:55;14.80;;;13.63;;
22046;SDS011;11187;49.412;20.956;2023-04-30T16:11:32;13.13;;;11.95;;
22046;SDS011;11187;49.412;20.956;2023-04-30T16:14:20;14.43;;;13.30;;
22046;SDS011;11187;49.412;20.956;2023-04-30T16:16:54;13.13;;;11.73;;
22046;SDS011;11187;49.412;20.956;2023-04-30T16:19:47;13.57;;;12.60;;
22046;SDS011;11187;49.412;20.956;2023-04-30T16:22:41;14.32;;;13.23;;